sensor_id;sensor_type;location;lat;lon;timestamp;P1;durP1;ratioP1;P2;durP2;ratioP2
70707;SDS011;58277;47.316;18.908;2022-12-18T00:00:55;45.10;;;12.98;;
70707;SDS011;58277;47.316;18.908;2022-12-18T00:03:17;51.07;;;14.73;;
70707;SDS011;58277;47.316;18.908;2022-12-18T00:05:50;43.13;;;12.25;;
70707;SDS011;58277;47.316;18.908;2022-12-18T00:08:13;45.15;;;13.18;;
70707;SDS011;58277;47.316;18.908;2022-12-18T00:10:36;49.13;;;13.55;;
70707;SDS011;58277;47.316;18.908;2022-12-18T00:12:58;40.97;;;12.57;;
70707;SDS011;58277;47.316;18.908;2022-12-18T00:15:27;47.30;;;13.10;;
70707;SDS011;58277;47.316;18.908;2022-12-18T00:17:50;45.72;;;12.93;;
70707;SDS011;58277;47.316;18.908;2022-12-18T00:20:13;45.85;;;12.82;;
70707;SDS011;58277;47.316;18.908;2022-12-18T00:22:35;47.05;;;12.57;;
70707;SDS011;58277;47.316;18.908;2022-12-18T00:24:58;46.47;;;13.32;;
70707;SDS011;58277;47.316;18.908;2022-12-18T00:27:20;43.87;;;12.57;;
70707;SDS011;58277;47.316;18.908;2022-12-18T00:29:43;42.53;;;12.65;;
70707;SDS011;58277;47.316;18.908;2022-12-18T00:32:06;43.55;;;12.82;;
70707;SDS011;58277;47.316;18.908;2022-12-18T00:34:28;42.80;;;13.52;;
70707;SDS011;58277;47.316;18.908;2022-12-18T00:36:51;42.78;;;12.85;;
70707;SDS011;58277;47.316;18.908;2022-12-18T00:39:14;44.17;;;12.37;;
70707;SDS011;58277;47.316;18.908;2022-12-18T00:41:39;48.42;;;13.57;;
70707;SDS011;58277;47.316;18.908;2022-12-18T00:44:20;45.50;;;12.57;;
70707;SDS011;58277;47.316;18.908;2022-12-18T00:46:43;37.25;;;12.88;;
70707;SDS011;58277;47.316;18.908;2022-12-18T00:49:06;45.13;;;12.82;;
70707;SDS011;58277;47.316;18.908;2022-12-18T00:51:29;49.33;;;13.27;;
70707;SDS011;58277;47.316;18.908;2022-12-18T00:53:52;45.53;;;12.95;;
70707;SDS011;58277;47.316;18.908;2022-12-18T00:56:14;44.00;;;13.07;;
70707;SDS011;58277;47.316;18.908;2022-12-18T00:58:37;37.38;;;11.93;;
70707;SDS011;58277;47.316;18.908;2022-12-18T01:01:00;41.92;;;12.43;;
70707;SDS011;58277;47.316;18.908;2022-12-18T01:03:23;48.87;;;13.93;;
70707;SDS011;58277;47.316;18.908;2022-12-18T01:05:46;46.28;;;13.90;;
70707;SDS011;58277;47.316;18.908;2022-12-18T01:08:08;43.10;;;12.88;;
70707;SDS011;58277;47.316;18.908;2022-12-18T01:10:31;40.33;;;11.65;;
70707;SDS011;58277;47.316;18.908;2022-12-18T01:12:54;45.55;;;13.07;;
70707;SDS011;58277;47.316;18.908;2022-12-18T01:15:17;43.50;;;12.50;;
70707;SDS011;58277;47.316;18.908;2022-12-18T01:17:41;43.33;;;12.90;;
70707;SDS011;58277;47.316;18.908;2022-12-18T01:20:03;40.88;;;12.90;;
70707;SDS011;58277;47.316;18.908;2022-12-18T01:22:27;43.53;;;14.00;;
70707;SDS011;58277;47.316;18.908;2022-12-18T01:24:50;43.80;;;12.82;;
70707;SDS011;58277;47.316;18.908;2022-12-18T01:27:12;46.53;;;14.20;;
70707;SDS011;58277;47.316;18.908;2022-12-18T01:29:35;43.75;;;11.88;;
70707;SDS011;58277;47.316;18.908;2022-12-18T01:31:58;45.80;;;13.50;;
70707;SDS011;58277;47.316;18.908;2022-12-18T01:34:20;40.13;;;11.95;;
70707;SDS011;58277;47.316;18.908;2022-12-18T01:36:44;48.78;;;13.45;;
70707;SDS011;58277;47.316;18.908;2022-12-18T01:39:10;48.33;;;12.60;;
70707;SDS011;58277;47.316;18.908;2022-12-18T01:41:36;43.78;;;12.45;;
70707;SDS011;58277;47.316;18.908;2022-12-18T01:50:14;42.80;;;12.35;;
70707;SDS011;58277;47.316;18.908;2022-12-18T01:52:42;40.83;;;12.13;;
70707;SDS011;58277;47.316;18.908;2022-12-18T01:55:09;43.85;;;11.95;;
70707;SDS011;58277;47.316;18.908;2022-12-18T01:57:33;44.47;;;12.48;;
70707;SDS011;58277;47.316;18.908;2022-12-18T01:59:59;45.63;;;12.48;;
70707;SDS011;58277;47.316;18.908;2022-12-18T02:02:34;47.65;;;13.32;;
70707;SDS011;58277;47.316;18.908;2022-12-18T02:04:57;41.70;;;12.63;;
70707;SDS011;58277;47.316;18.908;2022-12-18T02:10:26;39.55;;;12.57;;
70707;SDS011;58277;47.316;18.908;2022-12-18T02:12:54;45.65;;;13.55;;
70707;SDS011;58277;47.316;18.908;2022-12-18T02:15:27;52.65;;;14.05;;
70707;SDS011;58277;47.316;18.908;2022-12-18T02:17:59;52.63;;;15.27;;
70707;SDS011;58277;47.316;18.908;2022-12-18T02:29:01;46.63;;;13.35;;
70707;SDS011;58277;47.316;18.908;2022-12-18T02:31:31;47.67;;;13.43;;
70707;SDS011;58277;47.316;18.908;2022-12-18T02:34:02;49.00;;;13.15;;
70707;SDS011;58277;47.316;18.908;2022-12-18T02:36:31;42.72;;;13.93;;
70707;SDS011;58277;47.316;18.908;2022-12-18T02:38:55;43.90;;;13.27;;
70707;SDS011;58277;47.316;18.908;2022-12-18T02:41:19;45.70;;;13.75;;
70707;SDS011;58277;47.316;18.908;2022-12-18T02:43:59;47.43;;;14.80;;
70707;SDS011;58277;47.316;18.908;2022-12-18T02:46:29;46.03;;;13.60;;
70707;SDS011;58277;47.316;18.908;2022-12-18T02:49:08;50.60;;;13.95;;
70707;SDS011;58277;47.316;18.908;2022-12-18T02:51:47;46.10;;;13.63;;
70707;SDS011;58277;47.316;18.908;2022-12-18T02:54:20;44.53;;;13.05;;
70707;SDS011;58277;47.316;18.908;2022-12-18T02:57:07;44.17;;;14.10;;
70707;SDS011;58277;47.316;18.908;2022-12-18T03:00:02;44.33;;;13.10;;
70707;SDS011;58277;47.316;18.908;2022-12-18T03:02:44;44.00;;;14.00;;
70707;SDS011;58277;47.316;18.908;2022-12-18T03:05:29;46.95;;;14.32;;
70707;SDS011;58277;47.316;18.908;2022-12-18T03:10:35;43.93;;;13.23;;
70707;SDS011;58277;47.316;18.908;2022-12-18T03:13:10;46.03;;;12.85;;
70707;SDS011;58277;47.316;18.908;2022-12-18T03:15:38;46.90;;;13.70;;
70707;SDS011;58277;47.316;18.908;2022-12-18T03:18:11;44.00;;;13.18;;
70707;SDS011;58277;47.316;18.908;2022-12-18T03:20:37;49.17;;;13.35;;
70707;SDS011;58277;47.316;18.908;2022-12-18T03:23:09;44.50;;;13.93;;
70707;SDS011;58277;47.316;18.908;2022-12-18T03:25:35;47.00;;;13.57;;
70707;SDS011;58277;47.316;18.908;2022-12-18T03:28:01;45.25;;;13.85;;
70707;SDS011;58277;47.316;18.908;2022-12-18T03:30:26;43.33;;;13.98;;
70707;SDS011;58277;47.316;18.908;2022-12-18T03:33:02;46.53;;;13.80;;
70707;SDS011;58277;47.316;18.908;2022-12-18T03:35:35;43.47;;;13.37;;
70707;SDS011;58277;47.316;18.908;2022-12-18T03:38:01;49.25;;;13.48;;
70707;SDS011;58277;47.316;18.908;2022-12-18T03:40:26;43.83;;;13.18;;
70707;SDS011;58277;47.316;18.908;2022-12-18T03:43:11;41.28;;;12.63;;
70707;SDS011;58277;47.316;18.908;2022-12-18T03:45:50;37.33;;;13.10;;
70707;SDS011;58277;47.316;18.908;2022-12-18T03:53:51;40.15;;;11.88;;
70707;SDS011;58277;47.316;18.908;2022-12-18T03:56:25;40.15;;;12.55;;
70707;SDS011;58277;47.316;18.908;2022-12-18T03:58:52;45.20;;;12.52;;
70707;SDS011;58277;47.316;18.908;2022-12-18T04:01:20;46.50;;;13.30;;
70707;SDS011;58277;47.316;18.908;2022-12-18T04:03:48;45.45;;;12.73;;
70707;SDS011;58277;47.316;18.908;2022-12-18T04:06:14;45.58;;;12.18;;
70707;SDS011;58277;47.316;18.908;2022-12-18T04:08:39;43.42;;;12.70;;
70707;SDS011;58277;47.316;18.908;2022-12-18T04:11:06;47.22;;;12.68;;
70707;SDS011;58277;47.316;18.908;2022-12-18T04:13:30;50.53;;;13.17;;
70707;SDS011;58277;47.316;18.908;2022-12-18T04:15:59;47.80;;;13.50;;
70707;SDS011;58277;47.316;18.908;2022-12-18T04:18:22;41.25;;;12.50;;
70707;SDS011;58277;47.316;18.908;2022-12-18T04:20:45;50.38;;;13.65;;
70707;SDS011;58277;47.316;18.908;2022-12-18T04:23:08;42.90;;;12.43;;
70707;SDS011;58277;47.316;18.908;2022-12-18T04:25:31;41.43;;;13.30;;
70707;SDS011;58277;47.316;18.908;2022-12-18T04:28:01;41.83;;;13.15;;
70707;SDS011;58277;47.316;18.908;2022-12-18T04:30:24;48.60;;;13.95;;
70707;SDS011;58277;47.316;18.908;2022-12-18T04:32:47;43.97;;;12.98;;
70707;SDS011;58277;47.316;18.908;2022-12-18T04:35:14;39.97;;;12.93;;
70707;SDS011;58277;47.316;18.908;2022-12-18T04:37:38;48.10;;;13.83;;
70707;SDS011;58277;47.316;18.908;2022-12-18T04:40:01;49.47;;;13.95;;
70707;SDS011;58277;47.316;18.908;2022-12-18T04:42:32;41.28;;;12.68;;
70707;SDS011;58277;47.316;18.908;2022-12-18T04:44:55;46.35;;;13.05;;
70707;SDS011;58277;47.316;18.908;2022-12-18T04:47:17;46.38;;;13.10;;
70707;SDS011;58277;47.316;18.908;2022-12-18T04:49:40;48.73;;;13.03;;
70707;SDS011;58277;47.316;18.908;2022-12-18T04:52:03;55.05;;;15.38;;
70707;SDS011;58277;47.316;18.908;2022-12-18T04:54:26;46.72;;;14.30;;
70707;SDS011;58277;47.316;18.908;2022-12-18T04:56:48;49.55;;;13.90;;
70707;SDS011;58277;47.316;18.908;2022-12-18T04:59:11;48.67;;;14.18;;
70707;SDS011;58277;47.316;18.908;2022-12-18T05:04:17;50.60;;;14.18;;
70707;SDS011;58277;47.316;18.908;2022-12-18T05:06:41;46.10;;;13.80;;
70707;SDS011;58277;47.316;18.908;2022-12-18T05:09:03;44.50;;;13.45;;
70707;SDS011;58277;47.316;18.908;2022-12-18T05:11:27;43.67;;;13.23;;
70707;SDS011;58277;47.316;18.908;2022-12-18T05:13:49;39.63;;;13.77;;
70707;SDS011;58277;47.316;18.908;2022-12-18T05:16:12;47.92;;;14.57;;
70707;SDS011;58277;47.316;18.908;2022-12-18T05:18:36;45.15;;;13.35;;
70707;SDS011;58277;47.316;18.908;2022-12-18T05:20:59;51.17;;;15.02;;
70707;SDS011;58277;47.316;18.908;2022-12-18T05:23:22;49.03;;;14.73;;
70707;SDS011;58277;47.316;18.908;2022-12-18T05:26:04;50.13;;;13.40;;
70707;SDS011;58277;47.316;18.908;2022-12-18T05:28:28;44.10;;;13.30;;
70707;SDS011;58277;47.316;18.908;2022-12-18T05:30:54;51.78;;;14.45;;
70707;SDS011;58277;47.316;18.908;2022-12-18T05:33:18;49.28;;;14.23;;
70707;SDS011;58277;47.316;18.908;2022-12-18T05:35:42;42.95;;;13.38;;
70707;SDS011;58277;47.316;18.908;2022-12-18T05:38:05;49.43;;;14.37;;
70707;SDS011;58277;47.316;18.908;2022-12-18T05:40:27;47.75;;;13.77;;
70707;SDS011;58277;47.316;18.908;2022-12-18T05:42:51;48.67;;;15.38;;
70707;SDS011;58277;47.316;18.908;2022-12-18T05:45:14;52.53;;;14.05;;
70707;SDS011;58277;47.316;18.908;2022-12-18T05:47:36;54.30;;;14.73;;
70707;SDS011;58277;47.316;18.908;2022-12-18T05:49:59;48.07;;;14.80;;
70707;SDS011;58277;47.316;18.908;2022-12-18T05:52:23;46.05;;;13.40;;
70707;SDS011;58277;47.316;18.908;2022-12-18T05:54:46;50.65;;;14.48;;
70707;SDS011;58277;47.316;18.908;2022-12-18T05:57:08;47.55;;;13.23;;
70707;SDS011;58277;47.316;18.908;2022-12-18T05:59:31;44.45;;;13.52;;
70707;SDS011;58277;47.316;18.908;2022-12-18T06:01:54;45.40;;;14.30;;
70707;SDS011;58277;47.316;18.908;2022-12-18T06:04:17;47.50;;;14.20;;
70707;SDS011;58277;47.316;18.908;2022-12-18T06:06:39;45.58;;;14.25;;
70707;SDS011;58277;47.316;18.908;2022-12-18T06:09:03;52.22;;;13.20;;
70707;SDS011;58277;47.316;18.908;2022-12-18T06:11:30;49.72;;;14.35;;
70707;SDS011;58277;47.316;18.908;2022-12-18T06:13:53;47.40;;;13.70;;
70707;SDS011;58277;47.316;18.908;2022-12-18T06:16:20;53.15;;;15.13;;
70707;SDS011;58277;47.316;18.908;2022-12-18T06:18:43;51.05;;;14.73;;
70707;SDS011;58277;47.316;18.908;2022-12-18T06:21:06;46.55;;;14.18;;
70707;SDS011;58277;47.316;18.908;2022-12-18T06:23:28;47.60;;;13.48;;
70707;SDS011;58277;47.316;18.908;2022-12-18T06:25:51;42.83;;;12.73;;
70707;SDS011;58277;47.316;18.908;2022-12-18T06:28:14;49.65;;;12.75;;
70707;SDS011;58277;47.316;18.908;2022-12-18T06:30:37;49.17;;;14.48;;
70707;SDS011;58277;47.316;18.908;2022-12-18T06:33:00;47.85;;;13.77;;
70707;SDS011;58277;47.316;18.908;2022-12-18T06:35:23;45.53;;;13.73;;
70707;SDS011;58277;47.316;18.908;2022-12-18T06:37:45;45.43;;;12.97;;
70707;SDS011;58277;47.316;18.908;2022-12-18T06:40:08;52.45;;;14.48;;
70707;SDS011;58277;47.316;18.908;2022-12-18T06:42:31;47.35;;;14.23;;
70707;SDS011;58277;47.316;18.908;2022-12-18T06:44:54;50.58;;;13.77;;
70707;SDS011;58277;47.316;18.908;2022-12-18T06:47:17;49.45;;;13.43;;
70707;SDS011;58277;47.316;18.908;2022-12-18T06:49:40;48.97;;;13.87;;
70707;SDS011;58277;47.316;18.908;2022-12-18T06:52:03;47.30;;;13.48;;
70707;SDS011;58277;47.316;18.908;2022-12-18T06:54:25;47.55;;;13.35;;
70707;SDS011;58277;47.316;18.908;2022-12-18T06:56:48;37.70;;;11.40;;
70707;SDS011;58277;47.316;18.908;2022-12-18T06:59:12;39.63;;;12.85;;
70707;SDS011;58277;47.316;18.908;2022-12-18T07:01:42;50.43;;;13.90;;
70707;SDS011;58277;47.316;18.908;2022-12-18T07:04:29;53.80;;;14.02;;
70707;SDS011;58277;47.316;18.908;2022-12-18T07:06:52;49.15;;;14.35;;
70707;SDS011;58277;47.316;18.908;2022-12-18T07:09:15;48.50;;;13.88;;
70707;SDS011;58277;47.316;18.908;2022-12-18T07:11:38;50.20;;;14.20;;
70707;SDS011;58277;47.316;18.908;2022-12-18T07:14:01;53.87;;;14.67;;
70707;SDS011;58277;47.316;18.908;2022-12-18T07:16:24;46.45;;;14.30;;
70707;SDS011;58277;47.316;18.908;2022-12-18T07:18:47;50.15;;;14.68;;
70707;SDS011;58277;47.316;18.908;2022-12-18T07:21:14;46.67;;;14.32;;
70707;SDS011;58277;47.316;18.908;2022-12-18T07:23:38;49.65;;;14.32;;
70707;SDS011;58277;47.316;18.908;2022-12-18T07:26:06;51.83;;;14.70;;
70707;SDS011;58277;47.316;18.908;2022-12-18T07:28:31;52.97;;;15.40;;
70707;SDS011;58277;47.316;18.908;2022-12-18T07:30:54;48.67;;;14.50;;
70707;SDS011;58277;47.316;18.908;2022-12-18T07:33:17;50.05;;;15.07;;
70707;SDS011;58277;47.316;18.908;2022-12-18T07:35:40;51.40;;;15.75;;
70707;SDS011;58277;47.316;18.908;2022-12-18T07:38:02;51.87;;;15.67;;
70707;SDS011;58277;47.316;18.908;2022-12-18T07:40:25;54.15;;;16.27;;
70707;SDS011;58277;47.316;18.908;2022-12-18T07:42:48;51.88;;;14.60;;
70707;SDS011;58277;47.316;18.908;2022-12-18T07:45:10;47.50;;;14.65;;
70707;SDS011;58277;47.316;18.908;2022-12-18T07:47:34;52.50;;;14.98;;
70707;SDS011;58277;47.316;18.908;2022-12-18T07:49:58;45.07;;;14.80;;
70707;SDS011;58277;47.316;18.908;2022-12-18T07:52:21;44.22;;;14.25;;
70707;SDS011;58277;47.316;18.908;2022-12-18T07:54:47;53.17;;;15.20;;
70707;SDS011;58277;47.316;18.908;2022-12-18T07:57:11;49.80;;;16.02;;
70707;SDS011;58277;47.316;18.908;2022-12-18T07:59:54;51.80;;;15.73;;
70707;SDS011;58277;47.316;18.908;2022-12-18T08:02:17;48.63;;;15.73;;
70707;SDS011;58277;47.316;18.908;2022-12-18T08:04:40;49.08;;;15.35;;
70707;SDS011;58277;47.316;18.908;2022-12-18T08:07:02;54.20;;;16.27;;
70707;SDS011;58277;47.316;18.908;2022-12-18T08:09:25;52.25;;;15.77;;
70707;SDS011;58277;47.316;18.908;2022-12-18T08:11:47;49.28;;;16.30;;
70707;SDS011;58277;47.316;18.908;2022-12-18T08:14:10;54.03;;;15.73;;
70707;SDS011;58277;47.316;18.908;2022-12-18T08:16:33;55.65;;;16.20;;
70707;SDS011;58277;47.316;18.908;2022-12-18T08:18:56;50.58;;;15.50;;
70707;SDS011;58277;47.316;18.908;2022-12-18T08:21:23;52.10;;;15.90;;
70707;SDS011;58277;47.316;18.908;2022-12-18T08:23:51;60.08;;;17.50;;
70707;SDS011;58277;47.316;18.908;2022-12-18T08:26:15;49.10;;;16.27;;
70707;SDS011;58277;47.316;18.908;2022-12-18T08:28:37;63.65;;;17.40;;
70707;SDS011;58277;47.316;18.908;2022-12-18T08:31:11;58.40;;;17.17;;
70707;SDS011;58277;47.316;18.908;2022-12-18T08:33:34;53.22;;;15.75;;
70707;SDS011;58277;47.316;18.908;2022-12-18T08:36:00;53.47;;;16.27;;
70707;SDS011;58277;47.316;18.908;2022-12-18T08:38:23;54.70;;;16.13;;
70707;SDS011;58277;47.316;18.908;2022-12-18T08:40:46;58.15;;;15.57;;
70707;SDS011;58277;47.316;18.908;2022-12-18T08:43:09;58.38;;;16.75;;
70707;SDS011;58277;47.316;18.908;2022-12-18T08:45:51;55.65;;;15.57;;
70707;SDS011;58277;47.316;18.908;2022-12-18T08:48:14;49.13;;;14.70;;
70707;SDS011;58277;47.316;18.908;2022-12-18T08:50:43;57.50;;;16.07;;
70707;SDS011;58277;47.316;18.908;2022-12-18T08:53:05;57.13;;;17.10;;
70707;SDS011;58277;47.316;18.908;2022-12-18T08:55:28;52.08;;;15.40;;
70707;SDS011;58277;47.316;18.908;2022-12-18T08:57:51;60.78;;;16.17;;
70707;SDS011;58277;47.316;18.908;2022-12-18T09:00:14;56.08;;;16.73;;
70707;SDS011;58277;47.316;18.908;2022-12-18T09:02:38;59.10;;;16.80;;
70707;SDS011;58277;47.316;18.908;2022-12-18T09:05:01;51.75;;;16.10;;
70707;SDS011;58277;47.316;18.908;2022-12-18T09:07:23;56.17;;;16.65;;
70707;SDS011;58277;47.316;18.908;2022-12-18T09:09:46;51.88;;;16.42;;
70707;SDS011;58277;47.316;18.908;2022-12-18T09:12:09;53.55;;;16.05;;
70707;SDS011;58277;47.316;18.908;2022-12-18T09:14:32;55.23;;;17.23;;
70707;SDS011;58277;47.316;18.908;2022-12-18T09:16:54;55.63;;;17.83;;
70707;SDS011;58277;47.316;18.908;2022-12-18T09:19:17;55.40;;;17.02;;
70707;SDS011;58277;47.316;18.908;2022-12-18T09:21:40;56.28;;;17.38;;
70707;SDS011;58277;47.316;18.908;2022-12-18T09:24:11;56.13;;;17.35;;
70707;SDS011;58277;47.316;18.908;2022-12-18T09:26:35;54.13;;;17.13;;
70707;SDS011;58277;47.316;18.908;2022-12-18T09:28:59;61.35;;;17.25;;
70707;SDS011;58277;47.316;18.908;2022-12-18T09:31:22;54.58;;;17.92;;
70707;SDS011;58277;47.316;18.908;2022-12-18T09:33:46;59.53;;;17.52;;
70707;SDS011;58277;47.316;18.908;2022-12-18T09:36:10;52.55;;;16.33;;
70707;SDS011;58277;47.316;18.908;2022-12-18T09:38:34;53.30;;;16.07;;
70707;SDS011;58277;47.316;18.908;2022-12-18T09:41:25;57.55;;;17.35;;
70707;SDS011;58277;47.316;18.908;2022-12-18T09:43:50;58.38;;;16.67;;
70707;SDS011;58277;47.316;18.908;2022-12-18T09:46:17;52.58;;;17.05;;
70707;SDS011;58277;47.316;18.908;2022-12-18T09:48:48;54.33;;;17.55;;
70707;SDS011;58277;47.316;18.908;2022-12-18T09:51:17;53.70;;;16.60;;
70707;SDS011;58277;47.316;18.908;2022-12-18T09:53:44;49.30;;;15.70;;
70707;SDS011;58277;47.316;18.908;2022-12-18T09:56:16;53.35;;;16.05;;
70707;SDS011;58277;47.316;18.908;2022-12-18T09:58:41;57.63;;;17.90;;
70707;SDS011;58277;47.316;18.908;2022-12-18T10:01:10;55.05;;;16.65;;
70707;SDS011;58277;47.316;18.908;2022-12-18T10:03:34;55.37;;;16.53;;
70707;SDS011;58277;47.316;18.908;2022-12-18T10:06:02;58.10;;;17.70;;
70707;SDS011;58277;47.316;18.908;2022-12-18T10:14:34;55.00;;;17.00;;
70707;SDS011;58277;47.316;18.908;2022-12-18T10:19:53;53.47;;;16.35;;
70707;SDS011;58277;47.316;18.908;2022-12-18T10:25:13;57.42;;;17.85;;
70707;SDS011;58277;47.316;18.908;2022-12-18T10:27:47;56.63;;;15.98;;
70707;SDS011;58277;47.316;18.908;2022-12-18T10:30:18;57.63;;;16.70;;
70707;SDS011;58277;47.316;18.908;2022-12-18T10:32:43;54.75;;;16.67;;
70707;SDS011;58277;47.316;18.908;2022-12-18T10:35:08;52.65;;;16.10;;
70707;SDS011;58277;47.316;18.908;2022-12-18T10:37:39;52.67;;;16.60;;
70707;SDS011;58277;47.316;18.908;2022-12-18T10:48:56;50.75;;;15.90;;
70707;SDS011;58277;47.316;18.908;2022-12-18T10:51:21;50.00;;;15.85;;
70707;SDS011;58277;47.316;18.908;2022-12-18T10:53:50;47.92;;;15.60;;
70707;SDS011;58277;47.316;18.908;2022-12-18T10:56:19;46.30;;;14.97;;
70707;SDS011;58277;47.316;18.908;2022-12-18T10:58:43;51.88;;;15.88;;
70707;SDS011;58277;47.316;18.908;2022-12-18T11:01:18;49.05;;;16.25;;
70707;SDS011;58277;47.316;18.908;2022-12-18T11:03:45;47.60;;;15.50;;
70707;SDS011;58277;47.316;18.908;2022-12-18T11:06:24;46.78;;;15.75;;
70707;SDS011;58277;47.316;18.908;2022-12-18T11:11:41;51.25;;;15.43;;
70707;SDS011;58277;47.316;18.908;2022-12-18T11:14:12;45.50;;;14.95;;
70707;SDS011;58277;47.316;18.908;2022-12-18T11:16:44;47.78;;;14.98;;
70707;SDS011;58277;47.316;18.908;2022-12-18T11:19:36;46.95;;;14.15;;
70707;SDS011;58277;47.316;18.908;2022-12-18T11:22:03;51.10;;;15.53;;
70707;SDS011;58277;47.316;18.908;2022-12-18T11:24:42;49.40;;;14.18;;
70707;SDS011;58277;47.316;18.908;2022-12-18T11:27:23;46.33;;;13.20;;
70707;SDS011;58277;47.316;18.908;2022-12-18T11:29:46;42.45;;;13.60;;
70707;SDS011;58277;47.316;18.908;2022-12-18T11:35:01;46.27;;;14.20;;
70707;SDS011;58277;47.316;18.908;2022-12-18T11:37:49;42.17;;;13.80;;
70707;SDS011;58277;47.316;18.908;2022-12-18T11:40:20;45.97;;;14.10;;
70707;SDS011;58277;47.316;18.908;2022-12-18T11:43:01;41.90;;;13.43;;
70707;SDS011;58277;47.316;18.908;2022-12-18T11:45:35;41.20;;;13.73;;
70707;SDS011;58277;47.316;18.908;2022-12-18T11:48:14;46.00;;;14.07;;
70707;SDS011;58277;47.316;18.908;2022-12-18T11:53:11;40.85;;;13.25;;
70707;SDS011;58277;47.316;18.908;2022-12-18T12:01:06;38.97;;;12.87;;
70707;SDS011;58277;47.316;18.908;2022-12-18T12:12:16;36.17;;;11.75;;
70707;SDS011;58277;47.316;18.908;2022-12-18T12:18:13;39.13;;;12.93;;
70707;SDS011;58277;47.316;18.908;2022-12-18T12:26:12;33.97;;;10.40;;
70707;SDS011;58277;47.316;18.908;2022-12-18T12:28:55;34.73;;;11.07;;
70707;SDS011;58277;47.316;18.908;2022-12-18T12:36:46;37.53;;;12.27;;
70707;SDS011;58277;47.316;18.908;2022-12-18T12:39:34;36.20;;;11.02;;
70707;SDS011;58277;47.316;18.908;2022-12-18T12:42:00;34.10;;;10.53;;
70707;SDS011;58277;47.316;18.908;2022-12-18T12:44:44;35.15;;;11.02;;
70707;SDS011;58277;47.316;18.908;2022-12-18T12:47:23;37.15;;;11.18;;
70707;SDS011;58277;47.316;18.908;2022-12-18T12:49:49;35.63;;;11.15;;
70707;SDS011;58277;47.316;18.908;2022-12-18T12:55:16;33.53;;;11.00;;
70707;SDS011;58277;47.316;18.908;2022-12-18T12:57:48;29.58;;;9.48;;
70707;SDS011;58277;47.316;18.908;2022-12-18T13:00:19;29.27;;;9.50;;
70707;SDS011;58277;47.316;18.908;2022-12-18T13:02:45;31.35;;;10.00;;
70707;SDS011;58277;47.316;18.908;2022-12-18T13:05:34;38.00;;;11.55;;
70707;SDS011;58277;47.316;18.908;2022-12-18T13:07:59;32.33;;;11.10;;
70707;SDS011;58277;47.316;18.908;2022-12-18T13:13:06;34.42;;;10.98;;
70707;SDS011;58277;47.316;18.908;2022-12-18T13:18:28;35.35;;;11.55;;
70707;SDS011;58277;47.316;18.908;2022-12-18T13:25:49;38.13;;;11.23;;
70707;SDS011;58277;47.316;18.908;2022-12-18T13:28:15;36.28;;;11.60;;
70707;SDS011;58277;47.316;18.908;2022-12-18T13:35:37;40.03;;;12.57;;
70707;SDS011;58277;47.316;18.908;2022-12-18T13:38:02;45.72;;;13.88;;
70707;SDS011;58277;47.316;18.908;2022-12-18T13:40:54;40.28;;;12.88;;
70707;SDS011;58277;47.316;18.908;2022-12-18T13:45:44;40.33;;;12.10;;
70707;SDS011;58277;47.316;18.908;2022-12-18T13:48:16;37.85;;;12.45;;
70707;SDS011;58277;47.316;18.908;2022-12-18T13:50:41;38.55;;;12.50;;
70707;SDS011;58277;47.316;18.908;2022-12-18T13:53:04;41.03;;;12.52;;
70707;SDS011;58277;47.316;18.908;2022-12-18T13:55:27;41.22;;;12.95;;
70707;SDS011;58277;47.316;18.908;2022-12-18T13:57:50;39.23;;;12.73;;
70707;SDS011;58277;47.316;18.908;2022-12-18T14:00:28;34.70;;;12.20;;
70707;SDS011;58277;47.316;18.908;2022-12-18T14:02:51;41.78;;;13.25;;
70707;SDS011;58277;47.316;18.908;2022-12-18T14:05:21;40.60;;;12.43;;
70707;SDS011;58277;47.316;18.908;2022-12-18T14:07:45;44.00;;;13.48;;
70707;SDS011;58277;47.316;18.908;2022-12-18T14:10:13;39.73;;;12.57;;
70707;SDS011;58277;47.316;18.908;2022-12-18T14:12:58;44.58;;;13.65;;
70707;SDS011;58277;47.316;18.908;2022-12-18T14:15:35;42.92;;;13.13;;
70707;SDS011;58277;47.316;18.908;2022-12-18T14:20:48;40.65;;;12.43;;
70707;SDS011;58277;47.316;18.908;2022-12-18T14:23:48;42.23;;;12.53;;
70707;SDS011;58277;47.316;18.908;2022-12-18T14:26:21;42.03;;;13.50;;
70707;SDS011;58277;47.316;18.908;2022-12-18T14:28:50;41.40;;;13.10;;
70707;SDS011;58277;47.316;18.908;2022-12-18T14:31:20;40.90;;;13.82;;
70707;SDS011;58277;47.316;18.908;2022-12-18T14:33:44;40.65;;;13.07;;
70707;SDS011;58277;47.316;18.908;2022-12-18T14:36:13;44.13;;;14.03;;
70707;SDS011;58277;47.316;18.908;2022-12-18T14:38:39;41.65;;;13.27;;
70707;SDS011;58277;47.316;18.908;2022-12-18T14:41:04;41.67;;;13.45;;
70707;SDS011;58277;47.316;18.908;2022-12-18T14:43:35;44.40;;;13.20;;
70707;SDS011;58277;47.316;18.908;2022-12-18T14:46:00;42.55;;;13.30;;
70707;SDS011;58277;47.316;18.908;2022-12-18T14:51:05;39.83;;;12.85;;
70707;SDS011;58277;47.316;18.908;2022-12-18T14:53:40;41.08;;;12.95;;
70707;SDS011;58277;47.316;18.908;2022-12-18T14:56:17;46.75;;;14.07;;
70707;SDS011;58277;47.316;18.908;2022-12-18T14:58:48;40.80;;;13.40;;
70707;SDS011;58277;47.316;18.908;2022-12-18T15:01:17;40.70;;;13.27;;
70707;SDS011;58277;47.316;18.908;2022-12-18T15:03:45;45.33;;;13.43;;
70707;SDS011;58277;47.316;18.908;2022-12-18T15:06:15;46.97;;;14.20;;
70707;SDS011;58277;47.316;18.908;2022-12-18T15:08:46;43.42;;;13.52;;
70707;SDS011;58277;47.316;18.908;2022-12-18T15:11:26;43.83;;;13.68;;
70707;SDS011;58277;47.316;18.908;2022-12-18T15:14:32;44.33;;;13.90;;
70707;SDS011;58277;47.316;18.908;2022-12-18T15:16:57;48.10;;;13.95;;
70707;SDS011;58277;47.316;18.908;2022-12-18T15:19:22;43.78;;;14.05;;
70707;SDS011;58277;47.316;18.908;2022-12-18T15:21:55;43.15;;;14.00;;
70707;SDS011;58277;47.316;18.908;2022-12-18T15:24:29;45.08;;;13.32;;
70707;SDS011;58277;47.316;18.908;2022-12-18T15:26:54;40.70;;;12.60;;
70707;SDS011;58277;47.316;18.908;2022-12-18T15:29:19;46.58;;;14.70;;
70707;SDS011;58277;47.316;18.908;2022-12-18T15:32:01;43.28;;;13.43;;
70707;SDS011;58277;47.316;18.908;2022-12-18T15:34:25;44.55;;;13.77;;
70707;SDS011;58277;47.316;18.908;2022-12-18T15:36:50;45.85;;;14.20;;
70707;SDS011;58277;47.316;18.908;2022-12-18T15:39:13;46.90;;;14.23;;
70707;SDS011;58277;47.316;18.908;2022-12-18T15:41:36;43.67;;;14.35;;
70707;SDS011;58277;47.316;18.908;2022-12-18T15:47:09;43.92;;;13.65;;
70707;SDS011;58277;47.316;18.908;2022-12-18T15:49:34;44.53;;;14.20;;
70707;SDS011;58277;47.316;18.908;2022-12-18T15:51:58;47.13;;;14.13;;
70707;SDS011;58277;47.316;18.908;2022-12-18T15:54:22;50.75;;;14.88;;
70707;SDS011;58277;47.316;18.908;2022-12-18T15:57:07;48.45;;;14.75;;
70707;SDS011;58277;47.316;18.908;2022-12-18T15:59:47;48.45;;;14.82;;
70707;SDS011;58277;47.316;18.908;2022-12-18T16:02:13;47.95;;;14.57;;
70707;SDS011;58277;47.316;18.908;2022-12-18T16:04:40;48.10;;;14.77;;